Ekwok, AK (99580)

12:54 PM AKST on January 25, 2015 (GMT -0900)
New Stuyahok AP, New Stuyahok | Change Station
CLOSE
Current Station
Airport
Location: New Stuyahok AP, New Stuyahok,
Elevation: 302 ft
Nearby Weather Stations

Elev 302 ft 59.45 °N, 157.33 °W | Updated 58 minutes ago

Clear
Clear
-10 °F
Feels Like -28 °F
N
9
Wind Variable Wind from North
Gusts 18 mph

Today
High -- | Low -- °F
--% Chance of Precip.
Yesterday
High -- | Low -- °F
Precip. -- in
9:55 AM 5:30 PM
Waxing Crescent, 36% visible
Pressure 29.94 in
Visibility 10.0 miles
Clouds Clear
Windchill -28 °F
Dew Point -18 °F
Humidity 68%
Rainfall 0.00 in
Snow Depth Not available.
UV 0 out of 12
Pollen Not available.
Air Quality Not available.
Flu Activity Not available.
METAR PANW 252056Z AUTO 01008G16KT 10SM CLR M23/M28 A2997 RMK AO2 TSNO 51009 T12331277 SLP137 $

More Conditions Fewer Conditions

Pressure 29.94 in
Visibility 10.0 miles
Clouds Clear
Windchill -28 °F
Dew Point -18 °F
Humidity 68%
Rainfall 0.00 in
Snow Depth Not available.
UV 0 out of 12
Pollen Not available.
Air Quality Not available.
Flu Activity Not available.
METAR PANW 252056Z AUTO 01008G16KT 10SM CLR M23/M28 A2997 RMK AO2 TSNO 51009 T12331277 SLP137 $

More Conditions Fewer Conditions

10-Day Weather Forecast

Almanac

Astronomy

Jan. 25, 2015 Rise Set
Actual Time
Civil Twilight
Nautical Twilight
Astronomical Twilight
Moon
Length of Visible Light
Length of Day
Tomorrow will be .
, % of the Moon is Illuminated

Today's Extremes

State Highs State Lows

Community

WunderPhotos

Upload Photos

1,790,059 photos uploaded!

WunderBlogs® & News

Nearby

Air Quality

  Air Quality AQ Index Pollutant
Not available.

Snow Depth

Station Depth Elevation

Earthquake Activity

City Distance Mag. Time & Date
Minimum magnitude displayed is 2.5.

Coastal Water Temperatures

Place Temperature

Nearby Weather Stations